sensor_id;sensor_type;location;lat;lon;timestamp;pressure;altitude;pressure_sealevel;temperature;humidity
53546;BME280;39432;51.902;10.844;2023-04-30T00:00:36;100164.53;;;7.17;100.00
53546;BME280;39432;51.902;10.844;2023-04-30T00:03:08;100164.28;;;6.93;100.00
53546;BME280;39432;51.902;10.844;2023-04-30T00:05:38;100159.88;;;6.92;100.00
53546;BME280;39432;51.902;10.844;2023-04-30T00:08:08;100174.66;;;7.03;100.00
53546;BME280;39432;51.902;10.844;2023-04-30T00:10:38;100170.50;;;7.00;100.00
53546;BME280;39432;51.902;10.844;2023-04-30T00:13:07;100179.25;;;7.09;100.00
53546;BME280;39432;51.902;10.844;2023-04-30T00:15:39;100170.91;;;7.04;100.00
53546;BME280;39432;51.902;10.844;2023-04-30T00:18:12;100172.22;;;6.95;100.00
53546;BME280;39432;51.902;10.844;2023-04-30T00:20:41;100178.38;;;7.08;100.00
53546;BME280;39432;51.902;10.844;2023-04-30T00:23:11;100184.09;;;7.32;100.00
53546;BME280;39432;51.902;10.844;2023-04-30T00:25:41;100184.34;;;7.24;100.00
53546;BME280;39432;51.902;10.844;2023-04-30T00:28:10;100178.44;;;7.02;100.00
53546;BME280;39432;51.902;10.844;2023-04-30T00:30:40;100178.97;;;6.85;100.00
53546;BME280;39432;51.902;10.844;2023-04-30T00:33:12;100182.28;;;6.94;100.00
53546;BME280;39432;51.902;10.844;2023-04-30T00:35:42;100195.25;;;6.92;100.00
53546;BME280;39432;51.902;10.844;2023-04-30T00:38:12;100193.56;;;6.91;100.00
53546;BME280;39432;51.902;10.844;2023-04-30T00:40:42;100194.91;;;6.82;100.00
53546;BME280;39432;51.902;10.844;2023-04-30T00:43:12;100207.16;;;6.59;100.00
53546;BME280;39432;51.902;10.844;2023-04-30T00:45:42;100211.53;;;6.60;100.00
53546;BME280;39432;51.902;10.844;2023-04-30T00:48:14;100213.41;;;6.67;100.00
53546;BME280;39432;51.902;10.844;2023-04-30T00:50:44;100218.84;;;6.67;100.00
53546;BME280;39432;51.902;10.844;2023-04-30T00:53:14;100218.03;;;6.59;100.00
53546;BME280;39432;51.902;10.844;2023-04-30T00:55:47;100218.38;;;6.76;100.00
53546;BME280;39432;51.902;10.844;2023-04-30T00:58:17;100222.56;;;6.72;100.00
53546;BME280;39432;51.902;10.844;2023-04-30T01:00:47;100229.38;;;6.50;100.00
53546;BME280;39432;51.902;10.844;2023-04-30T01:03:20;100224.34;;;6.47;100.00
53546;BME280;39432;51.902;10.844;2023-04-30T01:05:51;100225.25;;;6.34;100.00
53546;BME280;39432;51.902;10.844;2023-04-30T01:08:21;100218.56;;;6.30;100.00
53546;BME280;39432;51.902;10.844;2023-04-30T01:10:53;100229.63;;;6.35;100.00
53546;BME280;39432;51.902;10.844;2023-04-30T01:13:28;100223.81;;;6.25;100.00
53546;BME280;39432;51.902;10.844;2023-04-30T01:16:06;100225.28;;;6.27;100.00
53546;BME280;39432;51.902;10.844;2023-04-30T01:18:47;100224.47;;;6.14;100.00
53546;BME280;39432;51.902;10.844;2023-04-30T01:21:18;100235.75;;;6.17;100.00
53546;BME280;39432;51.902;10.844;2023-04-30T01:24:05;100239.88;;;6.33;100.00
53546;BME280;39432;51.902;10.844;2023-04-30T01:26:52;100241.19;;;6.17;100.00
53546;BME280;39432;51.902;10.844;2023-04-30T01:29:25;100242.88;;;5.98;100.00
53546;BME280;39432;51.902;10.844;2023-04-30T01:31:55;100240.75;;;6.20;100.00
53546;BME280;39432;51.902;10.844;2023-04-30T01:34:25;100236.34;;;6.26;100.00
53546;BME280;39432;51.902;10.844;2023-04-30T01:37:07;100239.88;;;6.33;100.00
53546;BME280;39432;51.902;10.844;2023-04-30T01:39:58;100238.22;;;6.25;100.00
53546;BME280;39432;51.902;10.844;2023-04-30T01:42:39;100236.63;;;6.04;100.00
53546;BME280;39432;51.902;10.844;2023-04-30T01:45:21;100236.34;;;6.26;100.00
53546;BME280;39432;51.902;10.844;2023-04-30T01:47:55;100237.78;;;6.35;100.00
53546;BME280;39432;51.902;10.844;2023-04-30T01:50:33;100238.69;;;6.02;100.00
53546;BME280;39432;51.902;10.844;2023-04-30T01:53:09;100241.00;;;5.86;100.00
53546;BME280;39432;51.902;10.844;2023-04-30T01:55:43;100242.25;;;5.96;100.00
53546;BME280;39432;51.902;10.844;2023-04-30T01:58:15;100247.50;;;5.78;100.00
53546;BME280;39432;51.902;10.844;2023-04-30T02:00:47;100251.25;;;5.77;100.00
53546;BME280;39432;51.902;10.844;2023-04-30T02:03:17;100244.56;;;5.60;100.00
53546;BME280;39432;51.902;10.844;2023-04-30T02:05:48;100248.53;;;5.57;100.00
53546;BME280;39432;51.902;10.844;2023-04-30T02:08:18;100245.41;;;5.53;100.00
53546;BME280;39432;51.902;10.844;2023-04-30T02:10:48;100244.97;;;5.37;100.00
53546;BME280;39432;51.902;10.844;2023-04-30T02:13:17;100250.84;;;5.53;100.00
53546;BME280;39432;51.902;10.844;2023-04-30T02:15:50;100254.78;;;5.71;100.00
53546;BME280;39432;51.902;10.844;2023-04-30T02:18:20;100246.00;;;5.16;100.00
53546;BME280;39432;51.902;10.844;2023-04-30T02:20:49;100250.63;;;5.22;100.00
53546;BME280;39432;51.902;10.844;2023-04-30T02:23:19;100258.34;;;5.25;100.00
53546;BME280;39432;51.902;10.844;2023-04-30T02:25:49;100268.78;;;5.41;100.00
53546;BME280;39432;51.902;10.844;2023-04-30T02:28:18;100266.69;;;5.70;100.00
53546;BME280;39432;51.902;10.844;2023-04-30T02:30:51;100268.78;;;5.68;100.00
53546;BME280;39432;51.902;10.844;2023-04-30T02:33:21;100262.72;;;5.66;100.00
53546;BME280;39432;51.902;10.844;2023-04-30T02:35:51;100271.31;;;5.96;100.00
53546;BME280;39432;51.902;10.844;2023-04-30T02:38:21;100259.59;;;5.62;100.00
53546;BME280;39432;51.902;10.844;2023-04-30T02:40:50;100267.94;;;5.47;100.00
53546;BME280;39432;51.902;10.844;2023-04-30T02:43:20;100273.19;;;5.69;100.00
53546;BME280;39432;51.902;10.844;2023-04-30T02:45:52;100275.25;;;5.80;100.00
53546;BME280;39432;51.902;10.844;2023-04-30T02:48:22;100281.13;;;5.50;100.00
53546;BME280;39432;51.902;10.844;2023-04-30T02:50:52;100275.88;;;5.42;100.00
53546;BME280;39432;51.902;10.844;2023-04-30T02:53:22;100280.72;;;5.67;100.00
53546;BME280;39432;51.902;10.844;2023-04-30T02:55:52;100286.97;;;5.61;100.00
53546;BME280;39432;51.902;10.844;2023-04-30T02:58:21;100279.63;;;5.54;100.00
53546;BME280;39432;51.902;10.844;2023-04-30T03:00:55;100276.69;;;5.23;100.00
53546;BME280;39432;51.902;10.844;2023-04-30T03:03:25;100285.47;;;5.38;100.00
53546;BME280;39432;51.902;10.844;2023-04-30T03:05:55;100288.81;;;5.47;100.00
53546;BME280;39432;51.902;10.844;2023-04-30T03:08:25;100285.06;;;5.48;100.00
53546;BME280;39432;51.902;10.844;2023-04-30T03:10:55;100284.44;;;5.46;100.00
53546;BME280;39432;51.902;10.844;2023-04-30T03:13:25;100291.75;;;5.45;100.00
53546;BME280;39432;51.902;10.844;2023-04-30T03:16:01;100290.50;;;5.54;100.00
53546;BME280;39432;51.902;10.844;2023-04-30T03:18:32;100295.13;;;5.61;100.00
53546;BME280;39432;51.902;10.844;2023-04-30T03:21:02;100294.25;;;5.60;100.00
53546;BME280;39432;51.902;10.844;2023-04-30T03:23:32;100300.31;;;5.69;100.00
53546;BME280;39432;51.902;10.844;2023-04-30T03:26:02;100298.78;;;5.07;100.00
53546;BME280;39432;51.902;10.844;2023-04-30T03:28:31;100303.31;;;4.99;100.00
53546;BME280;39432;51.902;10.844;2023-04-30T03:31:04;100309.88;;;5.18;100.00
53546;BME280;39432;51.902;10.844;2023-04-30T03:33:34;100312.81;;;4.69;100.00
53546;BME280;39432;51.902;10.844;2023-04-30T03:36:04;100307.38;;;4.62;100.00
53546;BME280;39432;51.902;10.844;2023-04-30T03:38:34;100312.78;;;5.17;100.00
53546;BME280;39432;51.902;10.844;2023-04-30T03:41:04;100314.63;;;5.10;100.00
53546;BME280;39432;51.902;10.844;2023-04-30T03:43:34;100315.44;;;5.03;100.00
53546;BME280;39432;51.902;10.844;2023-04-30T03:46:07;100310.09;;;5.30;100.00
53546;BME280;39432;51.902;10.844;2023-04-30T03:48:36;100312.53;;;5.05;100.00
53546;BME280;39432;51.902;10.844;2023-04-30T03:51:07;100313.81;;;5.16;100.00
53546;BME280;39432;51.902;10.844;2023-04-30T03:53:36;100318.44;;;5.22;100.00
53546;BME280;39432;51.902;10.844;2023-04-30T03:56:06;100326.28;;;5.03;100.00
53546;BME280;39432;51.902;10.844;2023-04-30T03:58:36;100328.38;;;5.01;100.00
53546;BME280;39432;51.902;10.844;2023-04-30T04:01:09;100328.16;;;5.03;100.00
53546;BME280;39432;51.902;10.844;2023-04-30T04:03:38;100328.16;;;5.03;100.00
53546;BME280;39432;51.902;10.844;2023-04-30T04:06:08;100331.22;;;4.80;100.00
53546;BME280;39432;51.902;10.844;2023-04-30T04:08:38;100333.78;;;4.95;100.00
53546;BME280;39432;51.902;10.844;2023-04-30T04:11:09;100329.63;;;4.99;100.00
53546;BME280;39432;51.902;10.844;2023-04-30T04:13:39;100338.53;;;4.86;100.00
53546;BME280;39432;51.902;10.844;2023-04-30T04:16:11;100338.44;;;5.21;100.00
53546;BME280;39432;51.902;10.844;2023-04-30T04:18:44;100344.16;;;4.78;100.00
53546;BME280;39432;51.902;10.844;2023-04-30T04:21:13;100350.19;;;5.54;100.00
53546;BME280;39432;51.902;10.844;2023-04-30T04:23:44;100351.28;;;5.73;100.00
53546;BME280;39432;51.902;10.844;2023-04-30T04:26:14;100354.22;;;6.25;100.00
53546;BME280;39432;51.902;10.844;2023-04-30T04:28:45;100348.94;;;6.56;100.00
53546;BME280;39432;51.902;10.844;2023-04-30T04:31:18;100345.75;;;6.73;100.00
53546;BME280;39432;51.902;10.844;2023-04-30T04:33:48;100342.28;;;7.10;100.00
53546;BME280;39432;51.902;10.844;2023-04-30T04:36:24;100338.75;;;7.03;100.00
53546;BME280;39432;51.902;10.844;2023-04-30T04:38:55;100337.34;;;6.81;100.00
53546;BME280;39432;51.902;10.844;2023-04-30T04:41:28;100324.09;;;7.36;100.00
53546;BME280;39432;51.902;10.844;2023-04-30T04:43:58;100322.56;;;7.53;100.00
53546;BME280;39432;51.902;10.844;2023-04-30T04:46:33;100331.19;;;7.05;100.00
53546;BME280;39432;51.902;10.844;2023-04-30T04:49:04;100320.25;;;7.82;100.00
53546;BME280;39432;51.902;10.844;2023-04-30T04:51:34;100322.44;;;7.35;100.00
53546;BME280;39432;51.902;10.844;2023-04-30T04:54:05;100325.84;;;8.55;100.00
53546;BME280;39432;51.902;10.844;2023-04-30T04:56:35;100322.34;;;8.30;100.00
53546;BME280;39432;51.902;10.844;2023-04-30T04:59:05;100324.94;;;8.98;100.00
53546;BME280;39432;51.902;10.844;2023-04-30T05:01:37;100326.13;;;9.20;100.00
53546;BME280;39432;51.902;10.844;2023-04-30T05:04:07;100316.94;;;10.10;100.00
53546;BME280;39432;51.902;10.844;2023-04-30T05:06:39;100323.03;;;10.47;100.00
53546;BME280;39432;51.902;10.844;2023-04-30T05:09:10;100323.28;;;10.98;100.00
53546;BME280;39432;51.902;10.844;2023-04-30T05:11:39;100318.28;;;11.35;100.00
53546;BME280;39432;51.902;10.844;2023-04-30T05:14:10;100315.31;;;10.56;100.00
53546;BME280;39432;51.902;10.844;2023-04-30T05:16:43;100313.06;;;11.96;100.00
53546;BME280;39432;51.902;10.844;2023-04-30T05:19:13;100314.53;;;11.70;100.00
53546;BME280;39432;51.902;10.844;2023-04-30T05:21:43;100322.38;;;11.95;100.00
53546;BME280;39432;51.902;10.844;2023-04-30T05:24:13;100323.25;;;11.21;100.00
53546;BME280;39432;51.902;10.844;2023-04-30T05:26:42;100330.75;;;10.74;100.00
53546;BME280;39432;51.902;10.844;2023-04-30T05:29:12;100328.34;;;10.89;100.00
53546;BME280;39432;51.902;10.844;2023-04-30T05:31:44;100336.47;;;10.72;100.00
53546;BME280;39432;51.902;10.844;2023-04-30T05:34:14;100322.91;;;11.63;100.00
53546;BME280;39432;51.902;10.844;2023-04-30T05:36:44;100329.81;;;11.66;100.00
53546;BME280;39432;51.902;10.844;2023-04-30T05:39:14;100327.31;;;12.09;100.00
53546;BME280;39432;51.902;10.844;2023-04-30T05:41:43;100330.19;;;11.86;100.00
53546;BME280;39432;51.902;10.844;2023-04-30T05:44:14;100337.19;;;11.94;100.00
53546;BME280;39432;51.902;10.844;2023-04-30T05:46:46;100335.06;;;11.39;100.00
53546;BME280;39432;51.902;10.844;2023-04-30T05:49:16;100342.16;;;11.97;100.00
53546;BME280;39432;51.902;10.844;2023-04-30T05:51:46;100339.63;;;11.78;100.00
53546;BME280;39432;51.902;10.844;2023-04-30T05:54:16;100343.06;;;11.00;100.00
53546;BME280;39432;51.902;10.844;2023-04-30T05:56:46;100352.09;;;11.41;100.00
53546;BME280;39432;51.902;10.844;2023-04-30T05:59:15;100345.25;;;10.74;100.00
53546;BME280;39432;51.902;10.844;2023-04-30T06:01:48;100343.72;;;10.43;100.00
53546;BME280;39432;51.902;10.844;2023-04-30T06:04:18;100338.91;;;11.38;100.00
53546;BME280;39432;51.902;10.844;2023-04-30T06:06:47;100340.94;;;11.30;98.44
53546;BME280;39432;51.902;10.844;2023-04-30T06:09:17;100341.28;;;11.79;96.74
53546;BME280;39432;51.902;10.844;2023-04-30T06:11:47;100345.75;;;11.69;91.42
53546;BME280;39432;51.902;10.844;2023-04-30T06:14:18;100346.28;;;9.49;91.33
53546;BME280;39432;51.902;10.844;2023-04-30T06:16:51;100350.03;;;11.19;93.61
53546;BME280;39432;51.902;10.844;2023-04-30T06:19:21;100353.44;;;10.86;89.13
53546;BME280;39432;51.902;10.844;2023-04-30T06:21:51;100349.41;;;10.65;89.62
53546;BME280;39432;51.902;10.844;2023-04-30T06:24:21;100348.47;;;11.52;86.93
53546;BME280;39432;51.902;10.844;2023-04-30T06:26:53;100348.47;;;11.23;83.97
53546;BME280;39432;51.902;10.844;2023-04-30T06:29:23;100351.50;;;11.39;84.36
53546;BME280;39432;51.902;10.844;2023-04-30T06:31:55;100340.75;;;11.49;83.98
53546;BME280;39432;51.902;10.844;2023-04-30T06:34:25;100352.06;;;11.12;80.75
53546;BME280;39432;51.902;10.844;2023-04-30T06:36:55;100352.53;;;9.38;78.25
53546;BME280;39432;51.902;10.844;2023-04-30T06:39:24;100348.16;;;9.79;79.00
53546;BME280;39432;51.902;10.844;2023-04-30T06:41:54;100347.41;;;10.25;75.79
53546;BME280;39432;51.902;10.844;2023-04-30T06:44:27;100345.28;;;10.51;75.79
53546;BME280;39432;51.902;10.844;2023-04-30T06:47:00;100347.13;;;10.86;74.41
53546;BME280;39432;51.902;10.844;2023-04-30T06:49:29;100347.31;;;10.44;81.23
53546;BME280;39432;51.902;10.844;2023-04-30T06:51:59;100347.19;;;11.14;76.23
53546;BME280;39432;51.902;10.844;2023-04-30T06:54:29;100348.72;;;10.23;75.76
53546;BME280;39432;51.902;10.844;2023-04-30T06:56:59;100356.88;;;10.93;77.54
53546;BME280;39432;51.902;10.844;2023-04-30T06:59:28;100349.53;;;11.51;76.82
53546;BME280;39432;51.902;10.844;2023-04-30T07:02:01;100358.34;;;10.84;71.69
53546;BME280;39432;51.902;10.844;2023-04-30T07:04:31;100351.97;;;10.55;70.25
53546;BME280;39432;51.902;10.844;2023-04-30T07:07:00;100343.72;;;9.66;75.24
53546;BME280;39432;51.902;10.844;2023-04-30T07:09:30;100349.16;;;10.20;74.97
53546;BME280;39432;51.902;10.844;2023-04-30T07:12:00;100352.47;;;7.85;80.25
53546;BME280;39432;51.902;10.844;2023-04-30T07:14:30;100343.44;;;8.41;90.13
53546;BME280;39432;51.902;10.844;2023-04-30T07:17:02;100356.16;;;9.20;90.04
53546;BME280;39432;51.902;10.844;2023-04-30T07:19:32;100345.78;;;9.41;85.61
53546;BME280;39432;51.902;10.844;2023-04-30T07:22:02;100349.66;;;9.63;87.22
53546;BME280;39432;51.902;10.844;2023-04-30T07:24:32;100348.44;;;9.89;80.89
53546;BME280;39432;51.902;10.844;2023-04-30T07:27:02;100349.41;;;9.53;79.21
53546;BME280;39432;51.902;10.844;2023-04-30T07:29:34;100340.72;;;10.21;79.25
53546;BME280;39432;51.902;10.844;2023-04-30T07:32:06;100343.06;;;11.00;75.07
53546;BME280;39432;51.902;10.844;2023-04-30T07:34:36;100348.94;;;10.80;72.00
53546;BME280;39432;51.902;10.844;2023-04-30T07:37:06;100335.50;;;11.76;70.97
53546;BME280;39432;51.902;10.844;2023-04-30T07:39:36;100333.03;;;12.08;67.25
53546;BME280;39432;51.902;10.844;2023-04-30T07:42:09;100340.09;;;12.21;66.89
53546;BME280;39432;51.902;10.844;2023-04-30T07:44:39;100332.69;;;11.59;65.49
53546;BME280;39432;51.902;10.844;2023-04-30T07:47:12;100338.84;;;12.11;66.30
53546;BME280;39432;51.902;10.844;2023-04-30T07:49:42;100346.66;;;12.36;65.35
53546;BME280;39432;51.902;10.844;2023-04-30T07:52:12;100343.81;;;12.48;61.69
53546;BME280;39432;51.902;10.844;2023-04-30T07:54:41;100342.50;;;12.00;63.94
53546;BME280;39432;51.902;10.844;2023-04-30T07:57:11;100346.22;;;12.83;64.48
53546;BME280;39432;51.902;10.844;2023-04-30T07:59:41;100339.16;;;12.87;63.14
53546;BME280;39432;51.902;10.844;2023-04-30T08:02:13;100340.94;;;11.88;66.41
53546;BME280;39432;51.902;10.844;2023-04-30T08:04:44;100344.56;;;12.82;64.70
53546;BME280;39432;51.902;10.844;2023-04-30T08:07:14;100342.97;;;12.64;66.12
53546;BME280;39432;51.902;10.844;2023-04-30T08:09:44;100341.69;;;12.00;65.56
53546;BME280;39432;51.902;10.844;2023-04-30T08:12:15;100339.59;;;12.07;67.74
53546;BME280;39432;51.902;10.844;2023-04-30T08:14:45;100346.31;;;10.85;71.77
53546;BME280;39432;51.902;10.844;2023-04-30T08:17:18;100351.66;;;10.92;74.88
53546;BME280;39432;51.902;10.844;2023-04-30T08:19:47;100344.72;;;11.01;76.96
53546;BME280;39432;51.902;10.844;2023-04-30T08:22:18;100350.28;;;10.54;78.02
53546;BME280;39432;51.902;10.844;2023-04-30T08:24:48;100354.72;;;11.07;77.52
53546;BME280;39432;51.902;10.844;2023-04-30T08:27:18;100361.81;;;10.33;76.30
53546;BME280;39432;51.902;10.844;2023-04-30T08:29:48;100348.38;;;10.43;78.90
53546;BME280;39432;51.902;10.844;2023-04-30T08:32:20;100348.53;;;11.00;77.24
53546;BME280;39432;51.902;10.844;2023-04-30T08:34:50;100345.50;;;10.38;78.33
53546;BME280;39432;51.902;10.844;2023-04-30T08:37:21;100351.66;;;10.80;75.84
53546;BME280;39432;51.902;10.844;2023-04-30T08:39:51;100354.53;;;10.73;75.58
53546;BME280;39432;51.902;10.844;2023-04-30T08:42:25;100350.38;;;10.71;75.42
53546;BME280;39432;51.902;10.844;2023-04-30T08:44:55;100354.34;;;10.40;76.16
53546;BME280;39432;51.902;10.844;2023-04-30T08:47:28;100365.25;;;10.63;78.24
53546;BME280;39432;51.902;10.844;2023-04-30T08:49:57;100359.44;;;10.60;77.94
53546;BME280;39432;51.902;10.844;2023-04-30T08:52:28;100351.94;;;10.32;80.09
53546;BME280;39432;51.902;10.844;2023-04-30T08:55:00;100354.56;;;10.26;79.13
53546;BME280;39432;51.902;10.844;2023-04-30T08:57:30;100359.38;;;9.89;80.23
53546;BME280;39432;51.902;10.844;2023-04-30T09:00:00;100348.44;;;8.99;82.24
53546;BME280;39432;51.902;10.844;2023-04-30T09:02:33;100352.13;;;9.95;83.08
53546;BME280;39432;51.902;10.844;2023-04-30T09:05:06;100344.41;;;10.03;79.39
53546;BME280;39432;51.902;10.844;2023-04-30T09:07:39;100338.22;;;10.08;81.18
53546;BME280;39432;51.902;10.844;2023-04-30T09:10:31;100346.69;;;10.65;76.28
53546;BME280;39432;51.902;10.844;2023-04-30T09:13:02;100350.16;;;10.25;73.66
53546;BME280;39432;51.902;10.844;2023-04-30T09:15:34;100346.31;;;9.61;73.88
53546;BME280;39432;51.902;10.844;2023-04-30T09:18:08;100352.06;;;10.37;70.91
53546;BME280;39432;51.902;10.844;2023-04-30T09:20:53;100349.28;;;10.13;66.81
53546;BME280;39432;51.902;10.844;2023-04-30T09:23:24;100345.03;;;10.17;69.80
53546;BME280;39432;51.902;10.844;2023-04-30T09:25:54;100347.34;;;10.96;69.69
53546;BME280;39432;51.902;10.844;2023-04-30T09:28:24;100345.63;;;11.47;69.32
53546;BME280;39432;51.902;10.844;2023-04-30T09:30:55;100358.78;;;10.93;69.11
53546;BME280;39432;51.902;10.844;2023-04-30T09:33:44;100355.25;;;10.80;67.48
53546;BME280;39432;51.902;10.844;2023-04-30T09:36:14;100352.88;;;11.53;69.54
53546;BME280;39432;51.902;10.844;2023-04-30T09:38:44;100353.91;;;11.80;68.84
53546;BME280;39432;51.902;10.844;2023-04-30T09:41:22;100358.81;;;10.22;69.69
53546;BME280;39432;51.902;10.844;2023-04-30T09:43:52;100360.94;;;10.91;71.44
53546;BME280;39432;51.902;10.844;2023-04-30T09:46:29;100342.59;;;11.60;70.39
53546;BME280;39432;51.902;10.844;2023-04-30T09:49:04;100343.09;;;11.57;66.69
53546;BME280;39432;51.902;10.844;2023-04-30T09:51:34;100337.03;;;11.26;69.63
53546;BME280;39432;51.902;10.844;2023-04-30T09:54:05;100335.16;;;11.15;72.32
53546;BME280;39432;51.902;10.844;2023-04-30T09:56:37;100334.19;;;11.21;74.04
53546;BME280;39432;51.902;10.844;2023-04-30T09:59:08;100328.03;;;11.88;70.03
53546;BME280;39432;51.902;10.844;2023-04-30T10:01:41;100330.13;;;11.69;69.08
53546;BME280;39432;51.902;10.844;2023-04-30T10:04:14;100328.38;;;11.92;67.83
53546;BME280;39432;51.902;10.844;2023-04-30T10:06:44;100329.13;;;12.04;65.15
53546;BME280;39432;51.902;10.844;2023-04-30T10:09:16;100326.03;;;11.83;65.33
53546;BME280;39432;51.902;10.844;2023-04-30T10:11:46;100322.38;;;11.95;64.24
53546;BME280;39432;51.902;10.844;2023-04-30T10:14:18;100319.69;;;10.57;64.08
53546;BME280;39432;51.902;10.844;2023-04-30T10:16:52;100316.38;;;11.07;66.76
53546;BME280;39432;51.902;10.844;2023-04-30T10:19:29;100321.91;;;11.98;68.04
53546;BME280;39432;51.902;10.844;2023-04-30T10:22:00;100316.53;;;12.42;65.14
53546;BME280;39432;51.902;10.844;2023-04-30T10:24:33;100310.25;;;12.07;65.43
53546;BME280;39432;51.902;10.844;2023-04-30T10:27:03;100309.75;;;12.10;64.23
53546;BME280;39432;51.902;10.844;2023-04-30T10:29:33;100312.91;;;10.71;64.55
53546;BME280;39432;51.902;10.844;2023-04-30T10:32:04;100311.03;;;11.00;65.52
53546;BME280;39432;51.902;10.844;2023-04-30T10:34:44;100303.03;;;11.39;67.89
53546;BME280;39432;51.902;10.844;2023-04-30T10:37:20;100296.28;;;11.92;66.47
53546;BME280;39432;51.902;10.844;2023-04-30T10:39:52;100302.09;;;11.96;65.39
53546;BME280;39432;51.902;10.844;2023-04-30T10:42:23;100300.50;;;12.33;63.07
53546;BME280;39432;51.902;10.844;2023-04-30T10:44:53;100300.06;;;12.42;62.94
53546;BME280;39432;51.902;10.844;2023-04-30T10:47:28;100293.78;;;12.24;64.42
53546;BME280;39432;51.902;10.844;2023-04-30T10:50:07;100294.56;;;11.41;65.30
53546;BME280;39432;51.902;10.844;2023-04-30T10:52:38;100288.41;;;11.33;67.54
53546;BME280;39432;51.902;10.844;2023-04-30T10:55:08;100287.97;;;12.59;65.60
53546;BME280;39432;51.902;10.844;2023-04-30T10:57:42;100286.56;;;11.84;64.50
53546;BME280;39432;51.902;10.844;2023-04-30T11:00:18;100281.72;;;13.08;61.49
53546;BME280;39432;51.902;10.844;2023-04-30T11:02:48;100277.97;;;12.31;58.36
53546;BME280;39432;51.902;10.844;2023-04-30T11:05:20;100285.91;;;12.50;58.95
53546;BME280;39432;51.902;10.844;2023-04-30T11:07:55;100274.75;;;12.78;55.69
53546;BME280;39432;51.902;10.844;2023-04-30T11:10:29;100276.84;;;13.15;55.55
53546;BME280;39432;51.902;10.844;2023-04-30T11:13:03;100275.19;;;11.93;56.89
53546;BME280;39432;51.902;10.844;2023-04-30T11:15:39;100264.03;;;12.77;57.46
53546;BME280;39432;51.902;10.844;2023-04-30T11:18:12;100263.13;;;12.93;56.20
53546;BME280;39432;51.902;10.844;2023-04-30T11:20:49;100264.84;;;12.77;55.89
53546;BME280;39432;51.902;10.844;2023-04-30T11:23:22;100268.66;;;12.32;56.17
53546;BME280;39432;51.902;10.844;2023-04-30T11:26:07;100259.88;;;12.74;55.78
53546;BME280;39432;51.902;10.844;2023-04-30T11:28:37;100262.38;;;12.98;55.49
53546;BME280;39432;51.902;10.844;2023-04-30T11:31:07;100257.63;;;12.93;55.69
53546;BME280;39432;51.902;10.844;2023-04-30T11:33:39;100255.72;;;12.93;55.42
53546;BME280;39432;51.902;10.844;2023-04-30T11:36:13;100249.13;;;12.95;60.66
53546;BME280;39432;51.902;10.844;2023-04-30T11:38:43;100253.69;;;12.62;60.76
53546;BME280;39432;51.902;10.844;2023-04-30T11:41:13;100252.03;;;12.83;60.22
53546;BME280;39432;51.902;10.844;2023-04-30T11:43:43;100246.03;;;13.13;55.02
53546;BME280;39432;51.902;10.844;2023-04-30T11:46:14;100245.75;;;12.05;52.88
53546;BME280;39432;51.902;10.844;2023-04-30T11:48:45;100240.34;;;12.49;52.88
53546;BME280;39432;51.902;10.844;2023-04-30T11:51:19;100242.72;;;12.23;54.03
53546;BME280;39432;51.902;10.844;2023-04-30T11:53:50;100243.38;;;12.30;54.18
53546;BME280;39432;51.902;10.844;2023-04-30T11:56:21;100234.69;;;13.04;55.19
53546;BME280;39432;51.902;10.844;2023-04-30T11:58:52;100232.47;;;13.28;57.20
53546;BME280;39432;51.902;10.844;2023-04-30T12:01:25;100228.47;;;12.65;56.67
53546;BME280;39432;51.902;10.844;2023-04-30T12:03:55;100224.06;;;13.40;55.33
53546;BME280;39432;51.902;10.844;2023-04-30T12:06:29;100223.75;;;14.06;52.90
53546;BME280;39432;51.902;10.844;2023-04-30T12:08:59;100220.28;;;13.83;51.69
53546;BME280;39432;51.902;10.844;2023-04-30T12:11:30;100219.59;;;13.07;53.08
53546;BME280;39432;51.902;10.844;2023-04-30T12:14:02;100226.81;;;12.64;53.72
53546;BME280;39432;51.902;10.844;2023-04-30T12:16:41;100231.97;;;12.82;53.16
53546;BME280;39432;51.902;10.844;2023-04-30T12:19:11;100235.88;;;13.40;49.68
53546;BME280;39432;51.902;10.844;2023-04-30T12:21:44;100222.28;;;13.02;50.91
53546;BME280;39432;51.902;10.844;2023-04-30T12:24:16;100230.97;;;13.42;48.10
53546;BME280;39432;51.902;10.844;2023-04-30T12:26:46;100232.78;;;13.32;48.09
53546;BME280;39432;51.902;10.844;2023-04-30T12:29:17;100225.06;;;13.61;51.54
53546;BME280;39432;51.902;10.844;2023-04-30T12:31:48;100235.28;;;13.33;50.84
53546;BME280;39432;51.902;10.844;2023-04-30T12:34:18;100229.84;;;13.16;51.83
53546;BME280;39432;51.902;10.844;2023-04-30T12:36:51;100223.47;;;13.11;51.31
53546;BME280;39432;51.902;10.844;2023-04-30T12:39:21;100220.13;;;13.58;52.30
53546;BME280;39432;51.902;10.844;2023-04-30T12:41:51;100215.16;;;13.92;51.08
53546;BME280;39432;51.902;10.844;2023-04-30T12:44:22;100227.75;;;14.88;50.67
53546;BME280;39432;51.902;10.844;2023-04-30T12:46:54;100218.47;;;13.03;49.43
53546;BME280;39432;51.902;10.844;2023-04-30T12:49:27;100210.69;;;13.49;50.02
53546;BME280;39432;51.902;10.844;2023-04-30T12:52:02;100204.03;;;14.19;49.29
53546;BME280;39432;51.902;10.844;2023-04-30T12:54:34;100202.56;;;14.54;48.40
53546;BME280;39432;51.902;10.844;2023-04-30T12:57:05;100202.84;;;14.05;47.30
53546;BME280;39432;51.902;10.844;2023-04-30T12:59:37;100201.41;;;13.01;48.60
53546;BME280;39432;51.902;10.844;2023-04-30T13:02:08;100203.78;;;13.83;46.93